createdAt,value
2022-11-19T00:00:19.605Z,29.932
2022-11-19T00:05:19.660Z,29.932
2022-11-19T00:10:19.715Z,29.932
2022-11-19T00:15:19.682Z,29.934
2022-11-19T00:20:19.736Z,29.934
2022-11-19T00:25:19.662Z,29.934
2022-11-19T00:30:40.630Z,29.939
2022-11-19T00:35:16.543Z,29.939
2022-11-19T00:40:19.755Z,29.939
2022-11-19T00:45:19.820Z,29.948
2022-11-19T00:50:19.902Z,29.948
2022-11-19T00:55:19.814Z,29.948
2022-11-19T01:00:19.751Z,29.951
2022-11-19T01:05:20.178Z,29.951
2022-11-19T01:10:19.834Z,29.951
2022-11-19T01:15:19.781Z,29.958
2022-11-19T01:20:19.947Z,29.958
2022-11-19T01:25:16.813Z,29.958
2022-11-19T01:30:16.666Z,29.964
2022-11-19T01:35:19.858Z,29.964
2022-11-19T01:40:19.937Z,29.964
2022-11-19T01:45:19.854Z,29.965
2022-11-19T01:50:19.835Z,29.965
2022-11-19T01:55:19.880Z,29.965
2022-11-19T02:00:19.895Z,29.966
2022-11-19T02:05:19.939Z,29.966
2022-11-19T02:10:19.988Z,29.966
2022-11-19T02:15:19.912Z,29.971
2022-11-19T02:20:16.715Z,29.971
2022-11-19T02:25:19.977Z,29.971
2022-11-19T02:30:19.921Z,29.978
2022-11-19T02:35:20.022Z,29.978
2022-11-19T02:40:19.989Z,29.978
2022-11-19T02:45:19.997Z,29.980
2022-11-19T02:50:20.043Z,29.980
2022-11-19T02:55:20.025Z,29.980
2022-11-19T03:00:20.088Z,29.984
2022-11-19T03:05:19.938Z,29.984
2022-11-19T03:10:16.967Z,29.984
2022-11-19T03:15:16.979Z,29.987
2022-11-19T03:20:20.090Z,29.987
2022-11-19T03:25:20.027Z,29.987
2022-11-19T03:30:20.064Z,29.992
2022-11-19T03:35:20.195Z,29.992
2022-11-19T03:40:20.104Z,29.992
2022-11-19T03:45:20.126Z,29.995
2022-11-19T03:50:20.140Z,29.995
2022-11-19T03:55:20.141Z,29.995
2022-11-19T04:00:20.136Z,29.996
2022-11-19T04:05:17.082Z,29.996
2022-11-19T04:10:17.092Z,29.996
2022-11-19T04:15:20.219Z,29.996
2022-11-19T04:20:20.092Z,29.996
2022-11-19T04:25:20.145Z,29.996
2022-11-19T04:30:20.180Z,29.996
2022-11-19T04:35:20.178Z,29.996
2022-11-19T04:40:20.231Z,29.996
2022-11-19T04:45:20.254Z,29.996
2022-11-19T04:50:20.311Z,29.996
2022-11-19T04:55:20.287Z,29.996
2022-11-19T05:00:19.507Z,29.999
2022-11-19T05:05:19.487Z,29.999
2022-11-19T05:10:19.542Z,29.999
2022-11-19T05:15:16.541Z,30.000
2022-11-19T05:20:19.507Z,30.000
2022-11-19T05:25:19.508Z,30.000
2022-11-19T05:30:19.435Z,30.005
2022-11-19T05:35:19.619Z,30.005
2022-11-19T05:40:19.689Z,30.005
2022-11-19T05:45:19.719Z,30.009
2022-11-19T05:50:19.627Z,30.009
2022-11-19T05:55:19.668Z,30.009
2022-11-19T06:00:19.607Z,30.012
2022-11-19T06:05:16.621Z,30.012
2022-11-19T06:10:16.568Z,30.012
2022-11-19T06:15:19.612Z,30.011
2022-11-19T06:20:19.644Z,30.011
2022-11-19T06:25:19.791Z,30.011
2022-11-19T06:30:19.678Z,30.015
2022-11-19T06:35:19.707Z,30.015
2022-11-19T06:40:19.792Z,30.015
2022-11-19T06:45:19.723Z,30.025
2022-11-19T06:50:19.875Z,30.025
2022-11-19T06:55:19.802Z,30.025
2022-11-19T07:00:16.626Z,30.026
2022-11-19T07:05:16.549Z,30.026
2022-11-19T07:10:19.867Z,30.026
2022-11-19T07:15:19.857Z,30.030
2022-11-19T07:20:19.846Z,30.030
2022-11-19T07:25:20.019Z,30.030
2022-11-19T07:30:19.806Z,30.042
2022-11-19T07:35:19.859Z,30.042
2022-11-19T07:40:20.008Z,30.042
2022-11-19T07:45:19.859Z,30.043
2022-11-19T07:50:19.853Z,30.043
2022-11-19T07:55:16.814Z,30.043
2022-11-19T08:00:17.033Z,30.046
2022-11-19T08:05:19.911Z,30.046
2022-11-19T08:10:19.823Z,30.046
2022-11-19T08:15:20.026Z,30.047
2022-11-19T08:20:20.006Z,30.047
2022-11-19T08:25:19.984Z,30.047
2022-11-19T08:30:19.895Z,30.044
2022-11-19T08:35:20.058Z,30.044
2022-11-19T08:40:20.075Z,30.044
2022-11-19T08:45:20.769Z,30.046
2022-11-19T08:50:16.812Z,30.046
2022-11-19T08:55:20.048Z,30.046
2022-11-19T09:00:20.073Z,30.043
2022-11-19T09:05:20.048Z,30.043
2022-11-19T09:10:20.026Z,30.043
2022-11-19T09:15:19.981Z,30.043
2022-11-19T09:20:20.094Z,30.043
2022-11-19T09:25:20.102Z,30.043
2022-11-19T09:30:20.031Z,30.054
2022-11-19T09:35:20.067Z,30.054
2022-11-19T09:40:16.992Z,30.054
2022-11-19T09:45:17.014Z,30.057
2022-11-19T09:50:20.260Z,30.057
2022-11-19T09:55:20.274Z,30.057
2022-11-19T10:00:20.165Z,30.056
2022-11-19T10:05:20.250Z,30.056
2022-11-19T10:10:20.363Z,30.056
2022-11-19T10:15:20.230Z,30.058
2022-11-19T10:20:20.174Z,30.058
2022-11-19T10:25:20.141Z,30.058
2022-11-19T10:30:20.199Z,30.071
2022-11-19T10:35:17.167Z,30.071
2022-11-19T10:40:17.353Z,30.071
2022-11-19T10:45:20.404Z,30.074
2022-11-19T10:50:20.325Z,30.074
2022-11-19T10:55:20.326Z,30.074
2022-11-19T11:00:20.411Z,30.083
2022-11-19T11:05:20.431Z,30.083
2022-11-19T11:10:20.438Z,30.083
2022-11-19T11:15:20.379Z,30.088
2022-11-19T11:20:20.500Z,30.088
2022-11-19T11:25:20.465Z,30.088
2022-11-19T11:30:17.320Z,30.089
2022-11-19T11:35:20.569Z,30.089
2022-11-19T11:40:20.433Z,30.089
2022-11-19T11:45:20.447Z,30.089
2022-11-19T11:50:20.429Z,30.089
2022-11-19T11:55:20.489Z,30.089
2022-11-19T12:00:20.471Z,30.092
2022-11-19T12:05:20.494Z,30.092
2022-11-19T12:10:20.481Z,30.092
2022-11-19T12:15:18.487Z,30.102
2022-11-19T12:20:17.565Z,30.102
2022-11-19T12:25:17.493Z,30.102
2022-11-19T12:30:20.517Z,30.107
2022-11-19T12:35:20.598Z,30.107
2022-11-19T12:40:20.586Z,30.107
2022-11-19T12:45:18.596Z,30.109
2022-11-19T12:50:18.659Z,30.109
2022-11-19T12:55:18.620Z,30.109
2022-11-19T13:00:15.576Z,30.119
2022-11-19T13:05:15.582Z,30.119
2022-11-19T13:10:18.693Z,30.119
2022-11-19T13:15:18.505Z,30.119
2022-11-19T13:20:18.640Z,30.119
2022-11-19T13:25:18.750Z,30.119
2022-11-19T13:30:18.553Z,30.120
2022-11-19T13:35:18.679Z,30.120
2022-11-19T13:40:18.727Z,30.120
2022-11-19T13:45:18.701Z,30.119
2022-11-19T13:50:19.781Z,30.119
2022-11-19T13:55:19.883Z,30.119
2022-11-19T14:00:19.770Z,30.120
2022-11-19T14:05:19.753Z,30.120
2022-11-19T14:10:19.829Z,30.120
2022-11-19T14:15:19.789Z,30.118
2022-11-19T14:20:16.826Z,30.118
2022-11-19T14:25:19.829Z,30.118
2022-11-19T14:30:16.777Z,30.113
2022-11-19T14:35:19.899Z,30.113
2022-11-19T14:40:19.849Z,30.113
2022-11-19T14:45:19.899Z,30.109
2022-11-19T14:50:19.851Z,30.109
2022-11-19T14:55:19.864Z,30.109
2022-11-19T15:00:19.982Z,30.107
2022-11-19T15:05:19.966Z,30.107
2022-11-19T15:10:19.915Z,30.107
2022-11-19T15:15:19.892Z,30.105
2022-11-19T15:20:16.900Z,30.105
2022-11-19T15:25:16.903Z,30.105
2022-11-19T15:30:19.940Z,30.105
2022-11-19T15:35:20.039Z,30.105
2022-11-19T15:40:19.973Z,30.105
2022-11-19T15:45:19.959Z,30.100
2022-11-19T15:50:20.010Z,30.100
2022-11-19T15:55:20.433Z,30.100
2022-11-19T16:00:20.058Z,30.089
2022-11-19T16:05:19.972Z,30.089
2022-11-19T16:10:20.081Z,30.089
2022-11-19T16:15:17.017Z,30.080
2022-11-19T16:20:17.190Z,30.080
2022-11-19T16:25:20.055Z,30.080
2022-11-19T16:30:19.999Z,30.070
2022-11-19T16:35:20.059Z,30.070
2022-11-19T16:40:20.371Z,30.070
2022-11-19T16:45:20.110Z,30.058
2022-11-19T16:50:20.012Z,30.058
2022-11-19T16:55:20.201Z,30.058
2022-11-19T17:00:20.138Z,30.048
2022-11-19T17:05:16.967Z,30.048
2022-11-19T17:10:22.713Z,30.048
2022-11-19T17:15:20.142Z,30.038
2022-11-19T17:20:20.126Z,30.038
2022-11-19T17:25:20.676Z,30.038
2022-11-19T17:30:20.079Z,30.026
2022-11-19T17:35:20.157Z,30.026
2022-11-19T17:40:20.185Z,30.026
2022-11-19T17:45:20.288Z,30.013
2022-11-19T17:50:20.301Z,30.013
2022-11-19T17:55:20.251Z,30.013
2022-11-19T18:00:17.243Z,30.012
2022-11-19T18:05:17.098Z,30.012
2022-11-19T18:10:20.223Z,30.012
2022-11-19T18:15:20.369Z,30.005
2022-11-19T18:20:20.303Z,30.005
2022-11-19T18:25:20.302Z,30.005
2022-11-19T18:30:20.198Z,29.997
2022-11-19T18:35:20.344Z,29.997
2022-11-19T18:40:20.472Z,29.997
2022-11-19T18:45:20.358Z,29.995
2022-11-19T18:50:20.401Z,29.995
2022-11-19T18:55:17.308Z,29.995
2022-11-19T19:00:17.473Z,29.988
2022-11-19T19:05:20.447Z,29.988
2022-11-19T19:10:20.318Z,29.988
2022-11-19T19:15:20.414Z,29.983
2022-11-19T19:20:20.380Z,29.983
2022-11-19T19:25:20.478Z,29.983
2022-11-19T19:30:20.434Z,29.980
2022-11-19T19:35:20.407Z,29.980
2022-11-19T19:40:20.431Z,29.980
2022-11-19T19:45:17.482Z,29.979
2022-11-19T19:50:17.299Z,29.979
2022-11-19T19:55:20.589Z,29.979
2022-11-19T20:00:20.599Z,29.974
2022-11-19T20:05:20.456Z,29.974
2022-11-19T20:10:20.499Z,29.974
2022-11-19T20:15:20.552Z,29.973
2022-11-19T20:20:20.459Z,29.973
2022-11-19T20:25:20.466Z,29.973
2022-11-19T20:30:20.436Z,29.965
2022-11-19T20:35:20.634Z,29.965
2022-11-19T20:40:17.459Z,29.965
2022-11-19T20:45:17.408Z,29.964
2022-11-19T20:50:20.615Z,29.964
2022-11-19T20:55:18.547Z,29.964
2022-11-19T21:00:18.736Z,29.965
2022-11-19T21:05:18.548Z,29.965
2022-11-19T21:10:18.664Z,29.965
2022-11-19T21:15:18.618Z,29.959
2022-11-19T21:20:15.570Z,29.959
2022-11-19T21:25:18.610Z,29.959
2022-11-19T21:30:18.549Z,29.962
2022-11-19T21:35:18.686Z,29.962
2022-11-19T21:40:18.733Z,29.962
2022-11-19T21:45:18.668Z,29.964
2022-11-19T21:50:18.667Z,29.964
2022-11-19T21:55:18.771Z,29.964
2022-11-19T22:00:18.712Z,29.964
2022-11-19T22:05:18.691Z,29.964
2022-11-19T22:10:15.647Z,29.964
2022-11-19T22:15:15.554Z,29.964
2022-11-19T22:20:18.691Z,29.964
2022-11-19T22:25:18.745Z,29.964
2022-11-19T22:30:18.669Z,29.963
2022-11-19T22:35:18.832Z,29.963
2022-11-19T22:40:18.821Z,29.963
2022-11-19T22:45:18.802Z,29.963
2022-11-19T22:50:19.094Z,29.963
2022-11-19T22:55:18.800Z,29.963
2022-11-19T23:00:18.827Z,29.962
2022-11-19T23:05:15.847Z,29.962
2022-11-19T23:10:15.704Z,29.962
2022-11-19T23:15:18.875Z,29.965
2022-11-19T23:20:19.195Z,29.965
2022-11-19T23:25:18.883Z,29.965
2022-11-19T23:30:18.810Z,29.962
2022-11-19T23:35:19.118Z,29.962
2022-11-19T23:40:18.929Z,29.962
2022-11-19T23:45:18.913Z,29.965
2022-11-19T23:50:18.896Z,29.965
2022-11-19T23:55:18.933Z,29.965
